Time;durP1;ratioP1;P1;durP2;ratioP2;P2;SDS_P1;SDS_P2;PMS_P1;PMS_P2;Temp;Humidity;BMP_temperature;BMP_pressure;BME280_temperature;BME280_humidity;BME280_pressure;Samples;Min_cycle;Max_cycle;Signal;HPM_P1;HPM_P2
2024/01/19 00:00:07;;;;;;;17.10;6.80;;;;;;;-0.41;94.22;99125.50;335009;28;17946;-79
2024/01/19 00:00:19;;;;;;;15.45;6.20;;;;;;;-0.37;93.78;99138.31;336044;28;8310;-79
2024/01/19 00:00:31;;;;;;;15.82;6.30;;;;;;;-0.38;93.96;99134.91;336196;28;18647;-79
2024/01/19 00:00:43;;;;;;;15.20;6.22;;;;;;;-0.45;93.47;99134.00;337626;28;4527;-79
2024/01/19 00:00:56;;;;;;;13.88;6.22;;;;;;;-0.43;93.40;99132.31;334925;28;18614;-79
2024/01/19 00:01:10;;;;;;;10.63;5.72;;;;;;;-0.43;93.41;99132.31;337737;28;4912;-79
2024/01/19 00:01:23;;;;;;;10.90;5.70;;;;;;;-0.38;94.06;99129.78;334802;28;18220;-79
2024/01/19 00:01:37;;;;;;;13.48;6.25;;;;;;;-0.38;93.87;99131.47;333880;28;16057;-79
2024/01/19 00:01:49;;;;;;;12.32;6.30;;;;;;;-0.42;93.96;99128.94;329833;28;5075;-79
2024/01/19 00:02:01;;;;;;;10.07;5.68;;;;;;;-0.44;93.95;99130.63;333996;29;5209;-79
2024/01/19 00:02:13;;;;;;;16.60;6.40;;;;;;;-0.37;93.26;99134.03;333758;29;5763;-79
2024/01/19 00:02:25;;;;;;;18.85;7.00;;;;;;;-0.41;93.81;99134.88;331008;29;17981;-79
2024/01/19 00:02:37;;;;;;;14.45;7.03;;;;;;;-0.47;93.88;99143.38;333765;29;5233;-79
2024/01/19 00:02:49;;;;;;;11.70;6.25;;;;;;;-0.44;94.07;99135.72;332138;28;13086;-79
2024/01/19 00:03:02;;;;;;;12.20;6.18;;;;;;;-0.42;94.31;99135.75;335184;28;5297;-79
2024/01/19 00:03:14;;;;;;;12.75;5.95;;;;;;;-0.42;93.56;99128.94;335151;28;5688;-79
2024/01/19 00:03:26;;;;;;;13.75;6.10;;;;;;;-0.36;94.13;99133.22;328932;28;18113;-81
2024/01/19 00:03:38;;;;;;;12.15;5.93;;;;;;;-0.34;93.54;99133.19;335449;28;4613;-81
2024/01/19 00:03:50;;;;;;;14.30;5.78;;;;;;;-0.36;93.31;99137.44;332957;28;12668;-81
2024/01/19 00:04:03;;;;;;;14.68;6.28;;;;;;;-0.42;93.63;99136.59;336165;28;4663;-80
2024/01/19 00:04:15;;;;;;;13.77;6.38;;;;;;;-0.42;93.83;99139.16;337740;28;4575;-80
2024/01/19 00:04:27;;;;;;;14.02;6.63;;;;;;;-0.39;93.48;99137.44;334561;28;17874;-80
2024/01/19 00:04:39;;;;;;;14.05;6.60;;;;;;;-0.39;94.18;99134.91;337398;28;4573;-81
2024/01/19 00:04:51;;;;;;;14.05;6.88;;;;;;;-0.37;93.65;99130.66;336150;28;4559;-80
2024/01/19 00:05:03;;;;;;;13.73;7.00;;;;;;;-0.45;93.48;99138.28;333439;28;14561;-81
2024/01/19 00:05:15;;;;;;;16.00;7.13;;;;;;;-0.56;94.03;99135.69;337586;28;4768;-81
2024/01/19 00:05:27;;;;;;;15.75;6.85;;;;;;;-0.63;94.03;99132.25;335629;28;18822;-81
2024/01/19 00:05:39;;;;;;;15.50;7.10;;;;;;;-0.60;94.87;99133.97;337022;28;4515;-80
2024/01/19 00:05:52;;;;;;;14.05;7.60;;;;;;;-0.58;94.49;99137.38;332376;29;13203;-81
2024/01/19 00:06:04;;;;;;;13.27;7.43;;;;;;;-0.56;94.27;99133.13;333837;29;4790;-80
2024/01/19 00:06:16;;;;;;;12.10;6.97;;;;;;;-0.49;94.40;99137.41;334661;29;5259;-80
2024/01/19 00:06:28;;;;;;;12.50;7.05;;;;;;;-0.53;94.44;99139.94;332475;28;19278;-80
2024/01/19 00:06:40;;;;;;;11.93;6.80;;;;;;;-0.59;94.57;99140.78;336266;28;4662;-80
2024/01/19 00:06:53;;;;;;;11.02;6.22;;;;;;;-0.55;95.04;99145.03;334382;28;18052;-80
2024/01/19 00:07:04;;;;;;;12.50;6.45;;;;;;;-0.51;94.83;99135.69;334955;29;4919;-80
2024/01/19 00:07:17;;;;;;;14.27;7.18;;;;;;;-0.55;94.48;99142.47;332640;29;8286;-81
2024/01/19 00:07:29;;;;;;;15.40;7.50;;;;;;;-0.55;94.70;99133.97;335421;28;5048;-80
2024/01/19 00:07:41;;;;;;;15.55;7.10;;;;;;;-0.59;94.70;99135.66;334688;29;4619;-80
2024/01/19 00:07:53;;;;;;;13.68;7.05;;;;;;;-0.54;94.25;99139.09;329154;28;18397;-81
2024/01/19 00:08:05;;;;;;;15.40;7.03;;;;;;;-0.60;94.08;99139.06;336005;28;4506;-80
2024/01/19 00:08:17;;;;;;;17.13;7.45;;;;;;;-0.53;94.62;99145.06;332729;28;12828;-81
2024/01/19 00:08:29;;;;;;;16.85;7.00;;;;;;;-0.56;94.19;99140.78;336394;28;4516;-81
2024/01/19 00:08:41;;;;;;;14.70;6.78;;;;;;;-0.54;94.40;99136.56;336579;28;4584;-80
2024/01/19 00:08:53;;;;;;;14.45;6.28;;;;;;;-0.44;94.50;99135.72;333198;28;18295;-81
2024/01/19 00:09:06;;;;;;;14.93;6.55;;;;;;;-0.43;94.17;99145.09;334903;29;4525;-81
2024/01/19 00:09:18;;;;;;;13.15;6.95;;;;;;;-0.36;94.10;99142.53;333024;28;12656;-81
2024/01/19 00:09:31;;;;;;;13.13;6.95;;;;;;;-0.34;93.58;99143.41;336233;28;6636;-80
2024/01/19 00:09:43;;;;;;;15.05;7.35;;;;;;;-0.37;94.29;99145.97;334233;28;4539;-80
2024/01/19 00:09:55;;;;;;;16.42;7.72;;;;;;;-0.36;93.96;99142.53;336244;28;5309;-80
2024/01/19 00:10:08;;;;;;;15.30;7.40;;;;;;;-0.30;93.81;99145.13;334214;28;13287;-81
2024/01/19 00:10:20;;;;;;;16.23;7.20;;;;;;;-0.28;93.34;99151.09;336857;28;5119;-80
2024/01/19 00:10:33;;;;;;;16.77;7.45;;;;;;;-0.34;93.84;99151.06;336619;28;4548;-81
2024/01/19 00:10:45;;;;;;;16.45;7.57;;;;;;;-0.44;93.89;99145.09;329828;28;16409;-81
2024/01/19 00:10:57;;;;;;;15.80;7.13;;;;;;;-0.38;93.72;99149.34;336772;28;4605;-81
2024/01/19 00:11:15;;;;;;;15.80;7.18;;;;;;;-0.35;93.57;99146.81;334967;28;14419;-81
2024/01/19 00:11:27;;;;;;;13.10;6.85;;;;;;;-0.37;93.65;99145.97;334375;28;16595;-80
2024/01/19 00:11:39;;;;;;;12.90;6.63;;;;;;;-0.35;93.20;99150.22;335044;28;4793;-79
2024/01/19 00:11:51;;;;;;;14.82;6.90;;;;;;;-0.41;93.30;99151.03;337507;28;4594;-80
2024/01/19 00:12:04;;;;;;;14.73;7.13;;;;;;;-0.42;93.79;99149.34;336966;28;13509;-80
2024/01/19 00:12:16;;;;;;;15.02;7.47;;;;;;;-0.45;93.50;99151.88;334745;28;18390;-80
2024/01/19 00:12:28;;;;;;;13.90;7.00;;;;;;;-0.47;93.71;99156.13;333959;28;4553;-81
2024/01/19 00:12:40;;;;;;;12.43;6.28;;;;;;;-0.45;93.83;99151.88;334460;28;19149;-81
2024/01/19 00:12:52;;;;;;;11.70;6.05;;;;;;;-0.44;93.49;99156.16;335082;28;4650;-81
2024/01/19 00:13:04;;;;;;;13.27;6.25;;;;;;;-0.46;93.42;99151.91;337695;28;4689;-81
2024/01/19 00:13:16;;;;;;;14.52;7.55;;;;;;;-0.45;93.35;99154.44;335074;28;17295;-81
2024/01/19 00:13:28;;;;;;;13.80;7.47;;;;;;;-0.39;94.09;99152.75;338124;28;4535;-80
2024/01/19 00:13:41;;;;;;;12.65;6.80;;;;;;;-0.33;93.78;99152.78;333856;28;18200;-81
2024/01/19 00:13:53;;;;;;;15.13;6.47;;;;;;;-0.35;93.29;99159.59;335627;28;18453;-80
2024/01/19 00:14:06;;;;;;;15.82;6.88;;;;;;;-0.34;93.32;99161.28;331637;28;18014;-80
2024/01/19 00:14:18;;;;;;;14.20;6.93;;;;;;;-0.35;93.38;99157.03;336743;28;5388;-80
2024/01/19 00:14:30;;;;;;;13.80;7.05;;;;;;;-0.37;93.05;99159.56;336305;28;13814;-80
2024/01/19 00:14:42;;;;;;;15.10;7.70;;;;;;;-0.41;93.64;99156.16;340267;28;5376;-80
2024/01/19 00:14:54;;;;;;;14.77;7.85;;;;;;;-0.41;93.29;99166.38;337989;28;5068;-80
2024/01/19 00:15:07;;;;;;;15.30;7.68;;;;;;;-0.41;93.30;99156.16;336580;28;18424;-80
2024/01/19 00:15:19;;;;;;;13.90;6.57;;;;;;;-0.41;93.75;99163.81;336979;28;4597;-80
2024/01/19 00:15:43;;;;;;;13.93;6.82;;;;;;;-0.39;93.27;99162.97;333583;28;17961;-81
2024/01/19 00:15:55;;;;;;;14.98;7.15;;;;;;;-0.41;93.45;99163.81;336648;28;13505;-81
2024/01/19 00:16:07;;;;;;;15.35;7.50;;;;;;;-0.41;93.65;99166.38;335900;28;17132;-80
2024/01/19 00:16:20;;;;;;;16.10;7.47;;;;;;;-0.48;93.25;99162.09;336973;28;5242;-79
2024/01/19 00:16:31;;;;;;;14.02;7.30;;;;;;;-0.48;93.72;99168.91;336246;28;18076;-81
2024/01/19 00:16:43;;;;;;;14.05;7.97;;;;;;;-0.47;93.36;99166.34;333633;28;5066;-80
2024/01/19 00:16:55;;;;;;;13.73;8.20;;;;;;;-0.43;93.43;99168.06;334885;28;13591;-79
2024/01/19 00:17:07;;;;;;;12.93;6.90;;;;;;;-0.43;93.50;99170.63;337420;28;5116;-80
2024/01/19 00:17:19;;;;;;;12.70;6.68;;;;;;;-0.47;93.43;99171.44;337253;28;5172;-80
2024/01/19 00:17:32;;;;;;;13.43;6.35;;;;;;;-0.46;93.58;99167.22;335174;28;18071;-80
2024/01/19 00:17:44;;;;;;;14.85;7.03;;;;;;;-0.48;93.62;99169.75;336343;28;5512;-80
2024/01/19 00:17:56;;;;;;;14.13;7.30;;;;;;;-0.49;93.48;99167.19;335786;28;18834;-80
2024/01/19 00:18:09;;;;;;;13.07;7.53;;;;;;;-0.47;93.94;99168.91;333473;28;16119;-79
2024/01/19 00:18:23;;;;;;;13.25;7.80;;;;;;;-0.48;93.76;99169.75;329799;28;4656;-80
2024/01/19 00:18:35;;;;;;;14.27;7.60;;;;;;;-0.47;93.65;99171.44;337861;28;4888;-79
2024/01/19 00:18:47;;;;;;;14.13;7.35;;;;;;;-0.46;93.64;99170.63;333847;28;14886;-80
2024/01/19 00:18:59;;;;;;;12.68;7.50;;;;;;;-0.53;93.34;99170.59;335815;28;5486;-80
2024/01/19 00:19:11;;;;;;;16.33;8.05;;;;;;;-0.54;94.16;99174.84;333474;28;13219;-79
2024/01/19 00:19:23;;;;;;;19.20;8.38;;;;;;;-0.55;94.01;99168.00;335957;28;5429;-80
2024/01/19 00:19:36;;;;;;;19.88;8.13;;;;;;;-0.52;93.86;99175.69;336329;28;5106;-79
2024/01/19 00:19:48;;;;;;;16.88;7.82;;;;;;;-0.49;94.50;99168.03;332571;28;19202;-79
2024/01/19 00:20:00;;;;;;;16.52;8.23;;;;;;;-0.46;94.47;99170.63;335329;28;17286;-79
2024/01/19 00:20:12;;;;;;;16.55;7.53;;;;;;;-0.45;94.24;99164.66;337609;28;4685;-80
2024/01/19 00:20:24;;;;;;;13.77;6.57;;;;;;;-0.44;94.11;99170.63;333849;28;18177;-80
2024/01/19 00:20:36;;;;;;;13.88;6.95;;;;;;;-0.43;94.00;99168.06;337768;28;5130;-79
2024/01/19 00:20:49;;;;;;;15.80;7.40;;;;;;;-0.37;93.64;99180.00;332443;29;18502;-79
2024/01/19 00:21:01;;;;;;;16.55;6.97;;;;;;;-0.42;94.07;99167.22;335968;28;5950;-80
2024/01/19 00:21:14;;;;;;;15.50;6.60;;;;;;;-0.35;93.96;99164.69;328941;28;18286;-79
2024/01/19 00:21:26;;;;;;;12.93;6.45;;;;;;;-0.32;93.58;99170.69;336854;28;4651;-80
2024/01/19 00:21:45;;;;;;;14.02;6.50;;;;;;;-0.31;93.04;99177.47;333326;28;18768;-79
2024/01/19 00:21:57;;;;;;;14.18;7.13;;;;;;;-0.31;93.40;99177.47;332687;28;17458;-80
2024/01/19 00:22:09;;;;;;;14.05;7.18;;;;;;;-0.32;93.65;99169.81;335424;28;4547;-80
2024/01/19 00:22:21;;;;;;;13.57;6.75;;;;;;;-0.30;93.28;99178.31;335279;28;4568;-80
2024/01/19 00:22:33;;;;;;;13.07;6.72;;;;;;;-0.32;92.98;99173.22;332372;28;19268;-80
2024/01/19 00:22:45;;;;;;;14.43;6.72;;;;;;;-0.34;93.62;99176.59;330548;28;4590;-79
2024/01/19 00:22:57;;;;;;;15.05;7.07;;;;;;;-0.35;93.92;99172.34;336437;28;4542;-79
2024/01/19 00:23:09;;;;;;;15.48;7.82;;;;;;;-0.30;93.53;99173.22;330153;28;18279;-81
2024/01/19 00:23:21;;;;;;;15.73;8.45;;;;;;;-0.32;93.12;99172.34;334847;29;4888;-80
2024/01/19 00:23:33;;;;;;;15.43;8.18;;;;;;;-0.32;92.92;99169.81;332446;29;12873;-81
2024/01/19 00:23:46;;;;;;;16.35;7.90;;;;;;;-0.29;93.32;99178.34;335441;28;4593;-80
2024/01/19 00:23:59;;;;;;;14.82;8.38;;;;;;;-0.29;93.76;99170.66;332367;29;15293;-81
2024/01/19 00:24:14;;;;;;;14.68;8.02;;;;;;;-0.27;93.23;99175.78;330907;29;4656;-80
2024/01/19 00:24:25;;;;;;;13.57;6.97;;;;;;;-0.28;93.47;99176.63;332011;29;18226;-80
2024/01/19 00:24:37;;;;;;;14.07;6.68;;;;;;;-0.29;93.67;99177.50;336540;28;4658;-80
2024/01/19 00:24:49;;;;;;;13.45;6.22;;;;;;;-0.35;92.88;99175.75;332691;29;18014;-80
2024/01/19 00:25:02;;;;;;;12.02;5.68;;;;;;;-0.31;93.89;99176.63;334452;29;5500;-80
2024/01/19 00:25:14;;;;;;;11.15;5.65;;;;;;;-0.31;92.83;99176.63;333349;28;18038;-80
2024/01/19 00:25:26;;;;;;;10.75;5.75;;;;;;;-0.28;93.66;99176.63;336968;28;5444;-80
2024/01/19 00:25:39;;;;;;;10.25;6.20;;;;;;;-0.32;93.21;99177.47;336816;28;4556;-80
2024/01/19 00:25:50;;;;;;;10.23;6.22;;;;;;;-0.33;93.23;99173.22;333882;28;17509;-80
2024/01/19 00:26:03;;;;;;;12.68;7.13;;;;;;;-0.29;93.51;99174.94;336327;28;4615;-80
2024/01/19 00:26:15;;;;;;;12.20;6.47;;;;;;;-0.26;93.58;99173.25;333953;28;12007;-81
2024/01/19 00:26:27;;;;;;;11.55;6.00;;;;;;;-0.22;93.01;99181.78;334029;28;4841;-80
2024/01/19 00:26:39;;;;;;;13.00;6.22;;;;;;;-0.24;92.88;99173.25;333663;29;5358;-80
2024/01/19 00:26:51;;;;;;;12.88;6.43;;;;;;;-0.25;93.26;99180.03;330311;29;18032;-81
2024/01/19 00:27:05;;;;;;;12.23;6.10;;;;;;;-0.26;93.17;99174.97;331911;29;5081;-80
2024/01/19 00:27:17;;;;;;;12.57;6.20;;;;;;;-0.35;93.59;99173.19;325402;29;19093;-80
2024/01/19 00:27:29;;;;;;;13.20;6.30;;;;;;;-0.31;93.58;99181.75;334282;29;4712;-80
2024/01/19 00:27:41;;;;;;;11.50;5.95;;;;;;;-0.29;93.13;99178.34;331424;29;17940;-80
2024/01/19 00:27:53;;;;;;;11.02;5.97;;;;;;;-0.32;93.65;99180.00;334687;28;4540;-80
2024/01/19 00:28:05;;;;;;;11.43;6.20;;;;;;;-0.35;93.18;99185.13;334570;28;11341;-80
2024/01/19 00:28:17;;;;;;;12.18;6.20;;;;;;;-0.41;93.92;99184.25;332723;28;19920;-80
2024/01/19 00:28:29;;;;;;;13.70;6.32;;;;;;;-0.58;94.20;99178.22;336753;28;4616;-80
2024/01/19 00:28:42;;;;;;;14.07;6.30;;;;;;;-0.56;94.76;99186.75;332006;28;17846;-80
2024/01/19 00:28:55;;;;;;;13.57;6.75;;;;;;;-0.57;94.72;99190.13;338948;28;4959;-79
2024/01/19 00:29:07;;;;;;;12.20;6.60;;;;;;;-0.59;94.67;99184.16;335089;28;16690;-80
2024/01/19 00:29:19;;;;;;;13.15;6.72;;;;;;;-0.58;94.56;99182.47;336875;28;4750;-79
2024/01/19 00:29:31;;;;;;;13.25;6.22;;;;;;;-0.54;94.52;99181.63;335336;28;16320;-80
2024/01/19 00:29:43;;;;;;;14.95;6.05;;;;;;;-0.51;94.23;99185.06;337735;28;5063;-80
2024/01/19 00:29:55;;;;;;;14.18;5.95;;;;;;;-0.46;94.31;99187.66;337763;28;4682;-80
2024/01/19 00:30:07;;;;;;;11.63;6.03;;;;;;;-0.45;94.80;99190.19;335206;28;18658;-80
2024/01/19 00:30:19;;;;;;;12.40;6.35;;;;;;;-0.44;94.01;99180.84;332766;28;5388;-80
2024/01/19 00:30:32;;;;;;;13.30;6.70;;;;;;;-0.43;94.41;99185.09;336310;28;12549;-81
2024/01/19 00:30:44;;;;;;;14.43;6.60;;;;;;;-0.39;94.35;99183.41;337356;28;5971;-80
2024/01/19 00:30:56;;;;;;;14.60;6.57;;;;;;;-0.37;94.21;99181.72;337994;28;5441;-79
2024/01/19 00:31:08;;;;;;;16.05;6.72;;;;;;;-0.36;94.46;99173.19;335203;28;18202;-80
2024/01/19 00:31:20;;;;;;;16.25;7.68;;;;;;;-0.32;93.91;99180.88;338385;28;4551;-80
2024/01/19 00:31:32;;;;;;;14.93;7.80;;;;;;;-0.32;93.77;99180.00;335330;28;16585;-80
2024/01/19 00:31:46;;;;;;;14.35;7.72;;;;;;;-0.34;94.01;99182.59;335413;28;18473;-80
2024/01/19 00:31:58;;;;;;;15.10;7.13;;;;;;;-0.33;93.63;99178.31;335069;28;18017;-80
2024/01/19 00:32:10;;;;;;;13.30;6.53;;;;;;;-0.41;93.48;99181.69;339252;28;4792;-80
2024/01/19 00:32:22;;;;;;;12.40;6.13;;;;;;;-0.38;93.05;99185.09;335125;28;18212;-80
2024/01/19 00:32:35;;;;;;;13.18;5.93;;;;;;;-0.35;93.58;99180.88;336325;28;4533;-79
2024/01/19 00:32:47;;;;;;;14.75;7.03;;;;;;;-0.28;93.74;99179.19;334869;28;17575;-80
2024/01/19 00:32:59;;;;;;;19.23;10.68;;;;;;;-0.26;94.00;99185.19;336837;28;5118;-80
2024/01/19 00:33:11;;;;;;;20.17;11.13;;;;;;;-0.25;93.23;99177.50;337825;28;4659;-81
2024/01/19 00:33:23;;;;;;;18.67;9.05;;;;;;;-0.27;93.30;99188.56;334467;28;18211;-81
2024/01/19 00:33:35;;;;;;;17.50;7.35;;;;;;;-0.28;92.91;99176.63;337091;28;5605;-80
2024/01/19 00:33:47;;;;;;;15.85;6.45;;;;;;;-0.27;93.16;99180.91;333981;28;16402;-79
2024/01/19 00:33:59;;;;;;;16.48;5.88;;;;;;;-0.27;93.70;99178.34;336409;28;4566;-80
2024/01/19 00:34:16;;;;;;;15.27;5.90;;;;;;;-0.28;93.10;99177.50;336790;28;12829;-79
2024/01/19 00:34:28;;;;;;;13.60;6.20;;;;;;;-0.25;93.69;99177.50;329690;28;16971;-81
2024/01/19 00:34:43;;;;;;;13.23;6.45;;;;;;;-0.24;93.74;99183.47;337788;28;4652;-80
2024/01/19 00:34:55;;;;;;;16.77;9.90;;;;;;;-0.19;93.78;99184.31;334733;28;18364;-79
2024/01/19 00:35:07;;;;;;;19.63;11.10;;;;;;;-0.19;93.44;99186.88;335406;28;6389;-82
2024/01/19 00:35:23;;;;;;;14.75;7.57;;;;;;;-0.16;93.49;99192.00;334846;28;16296;-78
2024/01/19 00:35:35;;;;;;;14.98;6.82;;;;;;;-0.18;93.19;99182.63;338982;28;5595;-79
2024/01/19 00:35:47;;;;;;;16.63;7.75;;;;;;;-0.18;92.97;99183.50;337040;28;4584;-78
2024/01/19 00:35:59;;;;;;;15.55;7.88;;;;;;;-0.14;93.08;99190.31;335095;28;18273;-80
2024/01/19 00:36:11;;;;;;;15.55;7.70;;;;;;;-0.12;93.02;99183.50;338584;28;5471;-80
2024/01/19 00:36:23;;;;;;;13.45;7.57;;;;;;;-0.08;93.52;99185.22;335053;28;18303;-79
2024/01/19 00:36:35;;;;;;;12.93;7.53;;;;;;;-0.06;93.59;99182.66;338189;28;5160;-81
2024/01/19 00:36:47;;;;;;;12.82;6.82;;;;;;;-0.04;93.23;99186.94;335379;28;12573;-83
2024/01/19 00:36:59;;;;;;;14.10;7.40;;;;;;;-0.03;92.90;99183.53;337780;28;4556;-82
2024/01/19 00:37:11;;;;;;;16.42;8.20;;;;;;;-0.01;92.91;99192.03;338782;28;4535;-82
2024/01/19 00:37:23;;;;;;;16.90;8.32;;;;;;;-0.01;93.60;99184.38;337317;28;12267;-83
2024/01/19 00:37:35;;;;;;;15.13;7.95;;;;;;;0.02;93.22;99187.78;336284;28;13042;-81
2024/01/19 00:37:48;;;;;;;16.20;8.48;;;;;;;0.02;93.19;99185.22;338247;28;4600;-82
2024/01/19 00:38:00;;;;;;;15.60;9.20;;;;;;;-0.02;93.06;99190.34;334511;28;18236;-81
2024/01/19 00:38:12;;;;;;;15.75;9.38;;;;;;;-0.07;93.64;99191.19;337557;28;4570;-80
2024/01/19 00:38:24;;;;;;;15.20;8.40;;;;;;;-0.08;93.14;99190.34;335505;28;4620;-81
2024/01/19 00:38:36;;;;;;;15.73;7.38;;;;;;;-0.11;93.38;99187.75;338065;28;5184;-81
2024/01/19 00:38:48;;;;;;;15.57;7.22;;;;;;;-0.14;93.41;99187.75;336908;28;4526;-83
2024/01/19 00:39:00;;;;;;;15.18;7.15;;;;;;;-0.16;93.43;99186.91;336050;28;17585;-82
2024/01/19 00:39:14;;;;;;;14.80;7.40;;;;;;;-0.23;93.23;99185.16;337953;28;4610;-80
2024/01/19 00:39:27;;;;;;;15.38;7.53;;;;;;;-0.23;93.75;99190.28;335155;28;18247;-83
2024/01/19 00:39:39;;;;;;;14.88;7.65;;;;;;;-0.16;94.06;99192.00;334036;28;12430;-82
2024/01/19 00:39:51;;;;;;;12.75;7.07;;;;;;;-0.16;93.37;99192.00;336434;28;4511;-82
2024/01/19 00:40:11;;;;;;;12.32;6.63;;;;;;;-0.16;93.50;99186.91;335769;28;4596;-82
2024/01/19 00:40:24;;;;;;;13.38;6.38;;;;;;;-0.29;93.74;99191.09;328937;28;17714;-81
2024/01/19 00:40:36;;;;;;;15.70;6.80;;;;;;;-0.34;93.79;99186.81;333466;28;18097;-82
2024/01/19 00:40:48;;;;;;;14.93;6.50;;;;;;;-0.33;93.84;99188.53;336330;28;5312;-82
2024/01/19 00:41:00;;;;;;;15.40;6.22;;;;;;;-0.32;94.01;99190.22;333703;28;16003;-83
2024/01/19 00:41:12;;;;;;;13.93;6.40;;;;;;;-0.40;93.62;99200.44;336588;28;4582;-82
2024/01/19 00:41:26;;;;;;;14.23;6.57;;;;;;;-0.37;93.34;99191.94;336103;28;4665;-82
2024/01/19 00:41:38;;;;;;;14.98;6.28;;;;;;;-0.39;94.12;99191.06;333928;28;18203;-82
2024/01/19 00:41:50;;;;;;;14.00;6.32;;;;;;;-0.40;93.59;99192.78;332904;28;18418;-83
2024/01/19 00:42:02;;;;;;;12.57;6.50;;;;;;;-0.50;93.76;99199.53;337020;28;4497;-80
2024/01/19 00:42:14;;;;;;;12.60;6.25;;;;;;;-0.48;93.61;99195.28;334544;28;4872;-84
2024/01/19 00:42:26;;;;;;;12.35;6.22;;;;;;;-0.42;93.46;99195.31;337676;28;5324;-82
2024/01/19 00:42:42;;;;;;;10.52;5.63;;;;;;;-0.41;93.82;99201.28;336435;28;4531;-82
2024/01/19 00:42:54;;;;;;;11.23;5.88;;;;;;;-0.47;92.41;99196.97;335082;28;17761;-83
2024/01/19 00:43:06;;;;;;;14.25;6.43;;;;;;;-0.42;92.85;99200.44;334797;28;17379;-82
2024/01/19 00:43:18;;;;;;;14.95;6.75;;;;;;;-0.36;92.59;99193.63;331948;28;4525;-81
2024/01/19 00:43:30;;;;;;;16.05;6.63;;;;;;;-0.33;92.85;99198.75;336009;28;4613;-83
2024/01/19 00:43:42;;;;;;;16.73;6.50;;;;;;;-0.27;92.66;99198.78;336138;28;17144;-82
2024/01/19 00:43:54;;;;;;;17.70;6.78;;;;;;;-0.22;92.31;99194.56;337892;28;4549;-81
2024/01/19 00:44:06;;;;;;;16.23;6.80;;;;;;;-0.17;92.74;99200.50;333502;28;18116;-82
2024/01/19 00:44:18;;;;;;;12.80;6.80;;;;;;;-0.18;92.92;99193.72;335353;29;4752;-82
2024/01/19 00:44:30;;;;;;;13.13;7.07;;;;;;;-0.16;91.84;99199.69;332065;29;12798;-83
2024/01/19 00:44:42;;;;;;;14.27;7.13;;;;;;;-0.22;90.83;99202.22;335021;29;4638;-82
2024/01/19 00:44:54;;;;;;;15.48;7.10;;;;;;;-0.26;90.84;99197.94;335533;28;4828;-82
2024/01/19 00:45:10;;;;;;;13.73;6.68;;;;;;;-0.22;91.06;99204.78;333090;29;5294;-82
2024/01/19 00:45:22;;;;;;;16.33;7.03;;;;;;;-0.18;91.35;99198.81;332322;29;18133;-82
2024/01/19 00:45:35;;;;;;;18.30;7.97;;;;;;;-0.16;91.43;99199.69;333783;29;4653;-80
2024/01/19 00:45:47;;;;;;;17.20;8.30;;;;;;;-0.13;91.31;99206.50;331067;29;18128;-82
2024/01/19 00:45:59;;;;;;;14.75;7.60;;;;;;;-0.12;91.16;99203.94;333956;29;4553;-80
2024/01/19 00:46:11;;;;;;;14.27;7.25;;;;;;;-0.14;90.86;99210.75;336215;29;4561;-82
2024/01/19 00:46:23;;;;;;;13.90;7.10;;;;;;;-0.14;90.39;99204.78;333041;29;18101;-78
2024/01/19 00:46:35;;;;;;;13.45;6.63;;;;;;;-0.21;91.17;99202.19;335246;28;4636;-80
2024/01/19 00:46:48;;;;;;;13.50;6.60;;;;;;;-0.21;91.29;99211.56;334473;28;18111;-82
2024/01/19 00:47:00;;;;;;;15.52;6.63;;;;;;;-0.22;90.69;99204.78;334055;29;5893;-83
2024/01/19 00:47:12;;;;;;;16.85;7.05;;;;;;;-0.24;91.06;99207.31;332037;28;4608;-83
2024/01/19 00:47:24;;;;;;;16.25;7.45;;;;;;;-0.21;91.63;99209.00;334571;29;4658;-81
2024/01/19 00:47:37;;;;;;;14.13;6.85;;;;;;;-0.17;92.14;99208.19;329459;28;13951;-84
2024/01/19 00:47:49;;;;;;;13.73;6.82;;;;;;;-0.15;91.08;99209.03;336338;28;4987;-82
2024/01/19 00:48:01;;;;;;;13.77;6.70;;;;;;;-0.12;91.49;99203.94;335177;28;4543;-83
2024/01/19 00:48:13;;;;;;;13.00;6.45;;;;;;;-0.14;90.84;99205.66;329099;28;18292;-82
2024/01/19 00:48:25;;;;;;;12.05;6.22;;;;;;;-0.13;90.87;99209.91;335389;28;4573;-82
2024/01/19 00:48:38;;;;;;;13.45;6.68;;;;;;;-0.12;89.96;99208.19;335024;28;18196;-83
2024/01/19 00:48:50;;;;;;;13.35;6.80;;;;;;;-0.13;90.29;99209.91;335869;28;4702;-83
2024/01/19 00:49:02;;;;;;;13.52;6.90;;;;;;;-0.12;89.95;99209.06;336403;28;4587;-82
2024/01/19 00:49:14;;;;;;;12.35;6.50;;;;;;;-0.10;90.48;99207.38;329598;28;18162;-83
2024/01/19 00:49:26;;;;;;;12.85;6.18;;;;;;;-0.07;90.86;99209.06;334992;29;4568;-83
2024/01/19 00:49:38;;;;;;;12.30;5.82;;;;;;;-0.05;91.12;99208.22;334420;28;4619;-82
2024/01/19 00:49:50;;;;;;;11.60;6.15;;;;;;;-0.03;90.74;99208.22;336719;28;4571;-82
2024/01/19 00:50:04;;;;;;;11.73;6.35;;;;;;;-0.05;91.28;99210.78;331687;28;12768;-83
2024/01/19 00:50:16;;;;;;;13.38;6.57;;;;;;;-0.06;90.75;99214.19;333820;29;4545;-82
2024/01/19 00:50:29;;;;;;;14.10;6.55;;;;;;;-0.03;91.06;99211.63;327227;29;17845;-83
2024/01/19 00:50:41;;;;;;;13.13;6.43;;;;;;;-0.04;90.51;99207.38;334967;29;4725;-80
2024/01/19 00:50:53;;;;;;;10.60;5.95;;;;;;;-0.01;91.01;99212.47;327736;28;18126;-83
2024/01/19 00:51:06;;;;;;;10.57;5.90;;;;;;;0.03;91.11;99207.41;335035;28;4820;-82
2024/01/19 00:51:18;;;;;;;14.52;6.30;;;;;;;0.06;91.00;99212.50;332608;28;12885;-84
2024/01/19 00:51:30;;;;;;;14.93;6.30;;;;;;;0.07;91.08;99209.09;335512;28;5831;-83
2024/01/19 00:51:42;;;;;;;13.30;6.22;;;;;;;0.09;90.72;99202.31;336358;28;4554;-83
2024/01/19 00:51:54;;;;;;;12.95;6.28;;;;;;;0.12;90.93;99207.41;333530;28;18343;-84
2024/01/19 00:52:06;;;;;;;11.80;6.32;;;;;;;0.14;91.28;99211.69;332455;28;4527;-83
2024/01/19 00:52:18;;;;;;;10.75;6.15;;;;;;;0.16;91.37;99207.44;337656;28;4514;-80
2024/01/19 00:52:30;;;;;;;11.57;6.38;;;;;;;0.18;91.43;99213.41;333662;28;19482;-81
2024/01/19 00:52:42;;;;;;;14.68;6.80;;;;;;;0.20;91.63;99210.81;337365;28;4779;-83
2024/01/19 00:52:54;;;;;;;15.88;7.20;;;;;;;0.20;91.50;99208.28;334998;28;5453;-83
2024/01/19 00:53:07;;;;;;;14.95;7.35;;;;;;;0.18;91.20;99207.41;337496;28;4557;-82
2024/01/19 00:53:18;;;;;;;12.77;7.00;;;;;;;0.18;91.71;99207.41;335578;28;13170;-82
2024/01/19 00:53:31;;;;;;;10.90;6.35;;;;;;;0.17;91.85;99210.84;332593;28;6082;-81
2024/01/19 00:53:44;;;;;;;11.82;6.28;;;;;;;0.17;91.13;99208.28;337917;28;5308;-82
2024/01/19 00:53:56;;;;;;;12.38;5.85;;;;;;;0.22;91.25;99208.28;335176;28;18182;-83
2024/01/19 00:54:08;;;;;;;13.27;6.13;;;;;;;0.24;91.56;99207.44;336353;28;4582;-83
2024/01/19 00:54:20;;;;;;;13.02;6.03;;;;;;;0.24;91.09;99212.53;333844;28;17948;-83
2024/01/19 00:54:32;;;;;;;13.48;6.40;;;;;;;0.19;90.66;99209.13;326012;29;4633;-82
2024/01/19 00:54:44;;;;;;;13.05;6.50;;;;;;;0.22;90.50;99209.13;334780;28;10108;-84
2024/01/19 00:54:56;;;;;;;12.18;6.35;;;;;;;0.22;90.89;99206.56;333431;28;18402;-82
2024/01/19 00:55:10;;;;;;;12.00;6.45;;;;;;;0.22;90.97;99209.13;334686;29;4582;-81
2024/01/19 00:55:22;;;;;;;12.27;6.35;;;;;;;0.22;90.52;99214.25;332776;28;16697;-83
2024/01/19 00:55:34;;;;;;;13.60;6.65;;;;;;;0.20;90.41;99208.28;332203;29;12623;-82
2024/01/19 00:55:46;;;;;;;11.73;6.28;;;;;;;0.20;89.81;99213.38;335168;28;4575;-81
2024/01/19 00:55:58;;;;;;;13.00;6.18;;;;;;;0.22;90.25;99214.25;333761;29;4558;-81
2024/01/19 00:56:10;;;;;;;12.35;5.72;;;;;;;0.23;89.93;99213.41;331610;29;17862;-80
2024/01/19 00:56:22;;;;;;;13.27;6.10;;;;;;;0.20;90.35;99210.81;331121;29;4553;-81
2024/01/19 00:56:35;;;;;;;11.45;6.15;;;;;;;0.18;89.71;99213.41;332445;29;9139;-80
2024/01/19 00:56:47;;;;;;;11.85;6.47;;;;;;;0.16;90.46;99210.00;334105;29;4563;-82
2024/01/19 00:56:59;;;;;;;12.70;6.57;;;;;;;0.14;90.56;99210.81;335725;29;4535;-81
2024/01/19 00:57:11;;;;;;;12.93;6.80;;;;;;;0.15;90.18;99210.81;332836;28;18612;-83
2024/01/19 00:57:23;;;;;;;11.43;6.18;;;;;;;0.16;90.80;99209.13;333309;28;4607;-79
2024/01/19 00:57:35;;;;;;;12.57;6.38;;;;;;;0.18;90.49;99212.53;334404;28;17987;-81
2024/01/19 00:57:47;;;;;;;14.13;6.60;;;;;;;0.19;90.45;99214.25;337154;28;4585;-81
2024/01/19 00:57:59;;;;;;;14.55;6.40;;;;;;;0.18;90.34;99215.09;333053;28;4578;-81
2024/01/19 00:58:11;;;;;;;12.70;6.20;;;;;;;0.17;90.94;99219.34;333802;28;17841;-81
2024/01/19 00:58:23;;;;;;;13.15;6.63;;;;;;;0.18;91.19;99213.41;334609;28;4544;-79
2024/01/19 00:58:37;;;;;;;12.77;6.78;;;;;;;0.23;90.75;99215.97;335447;29;4534;-81
2024/01/19 00:58:49;;;;;;;11.20;6.38;;;;;;;0.21;90.57;99210.00;331461;29;18146;-83